Time;durP1;ratioP1;P1;durP2;ratioP2;P2;SDS_P1;SDS_P2;PMS_P1;PMS_P2;Temp;Humidity;BMP_temperature;BMP_pressure;BME280_temperature;BME280_humidity;BME280_pressure;Samples;Min_cycle;Max_cycle;Signal;HPM_P1;HPM_P2
2024/03/03 00:00:24;;;;;;;8.85;4.60;;;;;;;;;;702335;28;1022;-64
2024/03/03 00:00:45;;;;;;;7.68;4.25;;;;;;;;;;701593;28;1750;-65
2024/03/03 00:01:05;;;;;;;7.30;4.78;;;;;;;;;;701306;28;860;-64
2024/03/03 00:01:26;;;;;;;7.85;5.13;;;;;;;;;;702355;28;860;-65
2024/03/03 00:01:46;;;;;;;6.73;4.77;;;;;;;;;;699099;28;4501;-65
2024/03/03 00:02:07;;;;;;;6.93;4.60;;;;;;;;;;699284;28;805;-65
2024/03/03 00:02:27;;;;;;;6.80;4.60;;;;;;;;;;697813;28;2038;-65
2024/03/03 00:02:47;;;;;;;7.15;4.80;;;;;;;;;;700584;28;850;-65
2024/03/03 00:03:07;;;;;;;7.13;4.80;;;;;;;;;;699231;28;904;-64
2024/03/03 00:03:28;;;;;;;7.27;4.80;;;;;;;;;;699586;28;1731;-65
2024/03/03 00:03:48;;;;;;;8.48;4.68;;;;;;;;;;700164;28;813;-65
2024/03/03 00:04:10;;;;;;;9.10;4.80;;;;;;;;;;699684;28;1257;-65
2024/03/03 00:04:30;;;;;;;8.38;5.00;;;;;;;;;;699081;28;2129;-65
2024/03/03 00:04:51;;;;;;;7.33;4.70;;;;;;;;;;698639;28;4591;-66
2024/03/03 00:05:11;;;;;;;7.22;4.78;;;;;;;;;;699195;28;829;-65
2024/03/03 00:05:31;;;;;;;7.73;4.73;;;;;;;;;;698394;28;1821;-65
2024/03/03 00:05:51;;;;;;;6.90;4.50;;;;;;;;;;698056;28;1272;-65
2024/03/03 00:06:13;;;;;;;6.72;4.50;;;;;;;;;;699083;28;821;-64
2024/03/03 00:06:33;;;;;;;7.23;4.60;;;;;;;;;;698411;28;1865;-64
2024/03/03 00:06:53;;;;;;;7.03;4.67;;;;;;;;;;700535;28;904;-64
2024/03/03 00:07:15;;;;;;;8.07;4.90;;;;;;;;;;700366;28;1265;-64
2024/03/03 00:07:35;;;;;;;8.30;4.85;;;;;;;;;;698582;28;1830;-64
2024/03/03 00:07:55;;;;;;;7.47;4.73;;;;;;;;;;698567;28;4399;-65
2024/03/03 00:08:15;;;;;;;8.27;4.53;;;;;;;;;;700156;28;947;-64
2024/03/03 00:08:36;;;;;;;8.00;4.72;;;;;;;;;;698733;28;1716;-65
2024/03/03 00:08:56;;;;;;;7.80;4.83;;;;;;;;;;700153;28;1297;-65
2024/03/03 00:09:17;;;;;;;7.03;4.73;;;;;;;;;;698476;28;1328;-64
2024/03/03 00:09:38;;;;;;;7.95;4.90;;;;;;;;;;697948;28;2389;-65
2024/03/03 00:09:58;;;;;;;6.90;4.67;;;;;;;;;;699293;28;885;-64
2024/03/03 00:10:18;;;;;;;7.22;4.57;;;;;;;;;;699282;28;876;-65
2024/03/03 00:10:38;;;;;;;8.13;4.90;;;;;;;;;;697309;28;4476;-65
2024/03/03 00:10:59;;;;;;;7.03;4.53;;;;;;;;;;699552;28;1056;-65
2024/03/03 00:11:19;;;;;;;6.20;4.30;;;;;;;;;;699836;28;905;-65
2024/03/03 00:11:39;;;;;;;7.13;4.67;;;;;;;;;;698506;28;2435;-64
2024/03/03 00:12:00;;;;;;;7.80;4.80;;;;;;;;;;699561;28;1277;-65
2024/03/03 00:12:20;;;;;;;6.60;4.60;;;;;;;;;;699266;28;841;-65
2024/03/03 00:12:40;;;;;;;7.37;4.67;;;;;;;;;;698534;28;2377;-64
2024/03/03 00:13:01;;;;;;;7.57;4.90;;;;;;;;;;700291;28;908;-65
2024/03/03 00:13:21;;;;;;;7.25;4.80;;;;;;;;;;700130;28;844;-65
2024/03/03 00:13:42;;;;;;;7.97;4.80;;;;;;;;;;698770;28;4542;-65
2024/03/03 00:14:02;;;;;;;7.47;4.80;;;;;;;;;;698998;28;746;-64
2024/03/03 00:14:23;;;;;;;7.20;4.67;;;;;;;;;;699249;28;1213;-65
2024/03/03 00:14:44;;;;;;;6.93;4.80;;;;;;;;;;697360;28;2469;-65
2024/03/03 00:15:04;;;;;;;7.45;4.90;;;;;;;;;;698909;28;1023;-64
2024/03/03 00:15:24;;;;;;;7.38;4.68;;;;;;;;;;698485;28;1202;-64
2024/03/03 00:15:45;;;;;;;7.60;4.80;;;;;;;;;;698250;28;1808;-64
2024/03/03 00:16:05;;;;;;;6.87;4.70;;;;;;;;;;700222;28;1274;-65
2024/03/03 00:16:27;;;;;;;6.40;4.37;;;;;;;;;;701403;28;840;-65
2024/03/03 00:16:47;;;;;;;6.70;4.47;;;;;;;;;;698429;28;4348;-63
2024/03/03 00:17:08;;;;;;;7.53;4.70;;;;;;;;;;699407;28;1395;-64
2024/03/03 00:17:28;;;;;;;8.03;5.00;;;;;;;;;;698987;28;1563;-63
2024/03/03 00:17:48;;;;;;;7.20;4.80;;;;;;;;;;700324;28;1905;-64
2024/03/03 00:18:09;;;;;;;7.47;5.07;;;;;;;;;;699346;28;820;-65
2024/03/03 00:18:29;;;;;;;7.40;4.97;;;;;;;;;;699501;28;1777;-65
2024/03/03 00:18:49;;;;;;;9.02;4.90;;;;;;;;;;700050;28;3667;-65
2024/03/03 00:19:09;;;;;;;9.17;4.77;;;;;;;;;;698476;28;4894;-66
2024/03/03 00:19:30;;;;;;;9.57;4.70;;;;;;;;;;696935;28;1770;-65
2024/03/03 00:19:50;;;;;;;7.57;5.10;;;;;;;;;;699446;28;4511;-65
2024/03/03 00:20:10;;;;;;;7.35;4.93;;;;;;;;;;699276;28;1080;-65
2024/03/03 00:20:31;;;;;;;6.87;4.97;;;;;;;;;;698936;28;1937;-64
2024/03/03 00:20:51;;;;;;;7.60;4.90;;;;;;;;;;699473;28;852;-65
2024/03/03 00:21:11;;;;;;;7.53;4.70;;;;;;;;;;699458;28;1040;-64
2024/03/03 00:21:32;;;;;;;8.27;5.00;;;;;;;;;;698822;28;1866;-65
2024/03/03 00:21:52;;;;;;;9.15;5.15;;;;;;;;;;699849;28;1210;-65
2024/03/03 00:22:12;;;;;;;8.00;5.27;;;;;;;;;;700373;28;837;-65
2024/03/03 00:22:32;;;;;;;7.67;5.30;;;;;;;;;;698912;28;2333;-65
2024/03/03 00:22:53;;;;;;;7.57;4.63;;;;;;;;;;699639;28;4420;-65
2024/03/03 00:23:13;;;;;;;7.80;4.57;;;;;;;;;;700335;28;1210;-65
2024/03/03 00:23:33;;;;;;;7.97;4.90;;;;;;;;;;698911;28;1765;-65
2024/03/03 00:23:53;;;;;;;8.07;4.88;;;;;;;;;;700244;28;1259;-65
2024/03/03 00:24:14;;;;;;;7.53;5.13;;;;;;;;;;700742;28;955;-64
2024/03/03 00:24:34;;;;;;;7.30;4.97;;;;;;;;;;698955;28;2479;-65
2024/03/03 00:24:54;;;;;;;7.55;4.80;;;;;;;;;;701490;28;762;-64
2024/03/03 00:25:15;;;;;;;6.57;4.53;;;;;;;;;;697744;28;1394;-65
2024/03/03 00:25:35;;;;;;;7.00;4.87;;;;;;;;;;698053;28;3737;-65
2024/03/03 00:25:55;;;;;;;6.70;4.70;;;;;;;;;;699391;28;4300;-65
2024/03/03 00:26:15;;;;;;;6.40;4.30;;;;;;;;;;700253;28;1073;-65
2024/03/03 00:26:36;;;;;;;7.33;4.60;;;;;;;;;;698473;28;4998;-65
2024/03/03 00:26:56;;;;;;;7.23;4.40;;;;;;;;;;699635;28;884;-65
2024/03/03 00:27:16;;;;;;;7.13;4.53;;;;;;;;;;698819;28;924;-64
2024/03/03 00:27:36;;;;;;;7.50;4.57;;;;;;;;;;699199;28;1945;-65
2024/03/03 00:27:57;;;;;;;7.63;4.67;;;;;;;;;;699632;28;963;-65
2024/03/03 00:28:17;;;;;;;7.35;4.72;;;;;;;;;;700609;28;1241;-65
2024/03/03 00:28:37;;;;;;;7.67;4.97;;;;;;;;;;699059;28;4295;-65
2024/03/03 00:28:57;;;;;;;7.50;5.03;;;;;;;;;;700331;28;1203;-65
2024/03/03 00:29:18;;;;;;;7.20;4.60;;;;;;;;;;699827;28;877;-65
2024/03/03 00:29:38;;;;;;;6.53;4.23;;;;;;;;;;695968;28;1692;-66
2024/03/03 00:29:58;;;;;;;6.63;4.63;;;;;;;;;;696341;28;1305;-65
2024/03/03 00:30:19;;;;;;;7.70;4.93;;;;;;;;;;696902;28;877;-65
2024/03/03 00:30:39;;;;;;;6.93;4.70;;;;;;;;;;692841;28;1729;-64
2024/03/03 00:30:59;;;;;;;7.50;4.80;;;;;;;;;;695440;28;1156;-65
2024/03/03 00:31:19;;;;;;;7.87;4.90;;;;;;;;;;690491;28;1597;-64
2024/03/03 00:31:43;;;;;;;7.27;4.87;;;;;;;;;;689815;28;4479;-64
2024/03/03 00:32:04;;;;;;;7.82;4.90;;;;;;;;;;691828;28;873;-64
2024/03/03 00:32:25;;;;;;;7.83;4.93;;;;;;;;;;690845;28;884;-65
2024/03/03 00:32:45;;;;;;;7.43;4.68;;;;;;;;;;689065;28;1824;-65
2024/03/03 00:33:05;;;;;;;6.97;4.63;;;;;;;;;;689418;28;1258;-64
2024/03/03 00:33:25;;;;;;;7.22;4.40;;;;;;;;;;692414;28;912;-65
2024/03/03 00:33:46;;;;;;;7.97;4.67;;;;;;;;;;692718;28;1798;-65
2024/03/03 00:34:06;;;;;;;9.57;5.18;;;;;;;;;;693014;28;5082;-64
2024/03/03 00:34:26;;;;;;;9.03;4.70;;;;;;;;;;693416;28;1624;-64
2024/03/03 00:34:47;;;;;;;7.57;4.90;;;;;;;;;;692937;28;4544;-65
2024/03/03 00:35:09;;;;;;;7.13;5.00;;;;;;;;;;695745;28;1299;-63
2024/03/03 00:35:29;;;;;;;6.25;4.30;;;;;;;;;;692695;28;1215;-65
2024/03/03 00:35:50;;;;;;;8.00;4.60;;;;;;;;;;687147;28;977;-64
2024/03/03 00:36:10;;;;;;;7.70;4.80;;;;;;;;;;687977;28;932;-65
2024/03/03 00:36:30;;;;;;;7.63;4.97;;;;;;;;;;688918;28;1806;-64
2024/03/03 00:36:51;;;;;;;8.77;5.00;;;;;;;;;;693444;28;951;-65
2024/03/03 00:37:13;;;;;;;8.43;4.77;;;;;;;;;;695900;28;855;-64
2024/03/03 00:37:34;;;;;;;6.85;4.78;;;;;;;;;;695454;28;2493;-64
2024/03/03 00:37:54;;;;;;;6.53;4.27;;;;;;;;;;698488;28;4321;-64
2024/03/03 00:38:14;;;;;;;7.50;4.50;;;;;;;;;;699577;28;1730;-65
2024/03/03 00:38:36;;;;;;;7.30;4.57;;;;;;;;;;698260;28;1846;-64
2024/03/03 00:38:56;;;;;;;8.23;4.50;;;;;;;;;;697991;28;2064;-64
2024/03/03 00:39:17;;;;;;;8.50;4.50;;;;;;;;;;698555;28;857;-65
2024/03/03 00:39:37;;;;;;;7.70;4.70;;;;;;;;;;696553;28;1539;-65
2024/03/03 00:39:58;;;;;;;6.93;4.30;;;;;;;;;;696717;28;983;-65
2024/03/03 00:40:18;;;;;;;7.33;4.83;;;;;;;;;;695211;28;892;-65
2024/03/03 00:40:39;;;;;;;8.63;5.27;;;;;;;;;;694880;28;4520;-65
2024/03/03 00:41:00;;;;;;;7.87;4.63;;;;;;;;;;696522;28;1445;-65
2024/03/03 00:41:20;;;;;;;7.07;4.70;;;;;;;;;;696471;28;1317;-65
2024/03/03 00:41:40;;;;;;;7.13;4.70;;;;;;;;;;694713;28;1783;-66
2024/03/03 00:42:01;;;;;;;7.37;4.77;;;;;;;;;;696420;28;912;-65
2024/03/03 00:42:21;;;;;;;7.07;4.50;;;;;;;;;;698369;28;1183;-65
2024/03/03 00:42:41;;;;;;;7.80;4.55;;;;;;;;;;692873;28;1914;-65
2024/03/03 00:43:01;;;;;;;7.50;4.40;;;;;;;;;;698407;28;904;-64
2024/03/03 00:43:22;;;;;;;7.30;4.57;;;;;;;;;;693704;28;1227;-64
2024/03/03 00:43:42;;;;;;;7.40;4.75;;;;;;;;;;692786;28;4335;-65
2024/03/03 00:44:03;;;;;;;7.30;4.83;;;;;;;;;;693736;28;728;-65
2024/03/03 00:44:23;;;;;;;7.22;4.72;;;;;;;;;;695245;28;1302;-64
2024/03/03 00:44:44;;;;;;;7.87;4.70;;;;;;;;;;694135;28;1724;-64
2024/03/03 00:45:04;;;;;;;7.75;4.72;;;;;;;;;;695944;28;865;-65
2024/03/03 00:45:24;;;;;;;7.50;4.83;;;;;;;;;;696578;28;793;-64
2024/03/03 00:45:45;;;;;;;7.45;4.90;;;;;;;;;;696407;28;1834;-65
2024/03/03 00:46:05;;;;;;;7.47;4.40;;;;;;;;;;696862;28;1223;-65
2024/03/03 00:46:25;;;;;;;7.67;4.70;;;;;;;;;;697364;28;1619;-65
2024/03/03 00:46:46;;;;;;;7.75;4.90;;;;;;;;;;690408;28;4422;-64
2024/03/03 00:47:07;;;;;;;6.72;4.65;;;;;;;;;;694300;28;937;-65
2024/03/03 00:47:27;;;;;;;7.00;4.60;;;;;;;;;;694730;28;778;-64
2024/03/03 00:47:48;;;;;;;7.10;4.80;;;;;;;;;;693358;28;1511;-64
2024/03/03 00:48:08;;;;;;;7.20;4.57;;;;;;;;;;694111;28;865;-65
2024/03/03 00:48:29;;;;;;;8.17;4.47;;;;;;;;;;694782;28;1317;-65
2024/03/03 00:48:49;;;;;;;8.10;4.73;;;;;;;;;;696453;28;1767;-64
2024/03/03 00:49:09;;;;;;;7.13;4.45;;;;;;;;;;697521;28;1124;-65
2024/03/03 00:49:29;;;;;;;7.07;4.63;;;;;;;;;;696862;28;916;-65
2024/03/03 00:49:50;;;;;;;7.87;4.93;;;;;;;;;;695724;28;4387;-66
2024/03/03 00:50:10;;;;;;;7.80;4.68;;;;;;;;;;695669;28;1159;-64
2024/03/03 00:50:31;;;;;;;6.73;4.43;;;;;;;;;;697285;28;1852;-65
2024/03/03 00:50:51;;;;;;;6.55;4.90;;;;;;;;;;700512;28;1249;-64
2024/03/03 00:51:11;;;;;;;9.00;4.93;;;;;;;;;;698494;28;1231;-65
2024/03/03 00:51:31;;;;;;;7.13;4.63;;;;;;;;;;697177;28;1171;-65
2024/03/03 00:51:52;;;;;;;7.97;4.83;;;;;;;;;;698573;28;1074;-64
2024/03/03 00:52:13;;;;;;;7.95;4.88;;;;;;;;;;698425;28;1163;-64
2024/03/03 00:52:34;;;;;;;7.15;4.45;;;;;;;;;;697083;28;1837;-65
2024/03/03 00:52:54;;;;;;;6.53;4.38;;;;;;;;;;697602;28;4595;-65
2024/03/03 00:53:14;;;;;;;7.13;4.30;;;;;;;;;;700995;28;861;-65
2024/03/03 00:53:34;;;;;;;7.07;4.83;;;;;;;;;;699975;28;1549;-64
2024/03/03 00:53:55;;;;;;;6.78;4.57;;;;;;;;;;701332;28;877;-65
2024/03/03 00:54:15;;;;;;;6.50;4.40;;;;;;;;;;698091;28;1225;-65
2024/03/03 00:54:35;;;;;;;7.23;4.67;;;;;;;;;;696978;28;2011;-65
2024/03/03 00:54:57;;;;;;;7.28;4.57;;;;;;;;;;698349;28;1687;-64
2024/03/03 00:55:17;;;;;;;7.78;4.72;;;;;;;;;;697882;28;1483;-64
2024/03/03 00:55:37;;;;;;;7.50;4.30;;;;;;;;;;696468;28;4694;-65
2024/03/03 00:55:57;;;;;;;6.22;4.50;;;;;;;;;;697654;28;924;-64
2024/03/03 00:56:18;;;;;;;6.73;4.30;;;;;;;;;;699846;28;789;-65
2024/03/03 00:56:41;;;;;;;7.43;4.47;;;;;;;;;;698087;28;1760;-65
2024/03/03 00:57:03;;;;;;;7.72;4.75;;;;;;;;;;700839;28;1843;-64
2024/03/03 00:57:24;;;;;;;7.30;4.35;;;;;;;;;;697277;28;1512;-64
2024/03/03 00:57:44;;;;;;;7.03;4.50;;;;;;;;;;700057;28;1909;-65
2024/03/03 00:58:04;;;;;;;7.38;4.40;;;;;;;;;;701264;28;778;-65
2024/03/03 00:58:24;;;;;;;7.27;4.50;;;;;;;;;;698337;28;1376;-64
2024/03/03 00:58:45;;;;;;;7.43;4.33;;;;;;;;;;697599;28;4764;-65
2024/03/03 00:59:06;;;;;;;7.22;4.60;;;;;;;;;;700510;28;1480;-64
2024/03/03 00:59:26;;;;;;;7.03;4.65;;;;;;;;;;702998;28;912;-65
2024/03/03 00:59:46;;;;;;;7.07;4.60;;;;;;;;;;699775;28;878;-65
2024/03/03 01:00:09;;;;;;;7.18;4.47;;;;;;;;;;701075;28;1513;-65
2024/03/03 01:00:29;;;;;;;6.40;4.30;;;;;;;;;;703703;28;1149;-64
2024/03/03 01:00:49;;;;;;;6.63;4.30;;;;;;;;;;699820;28;2250;-64
2024/03/03 01:01:12;;;;;;;7.93;4.53;;;;;;;;;;700980;28;844;-65
2024/03/03 01:01:32;;;;;;;7.68;4.60;;;;;;;;;;699734;28;1721;-64
2024/03/03 01:01:52;;;;;;;7.90;4.60;;;;;;;;;;699227;28;4653;-64
2024/03/03 01:02:13;;;;;;;8.35;4.88;;;;;;;;;;698875;28;1074;-64
2024/03/03 01:02:33;;;;;;;7.27;4.80;;;;;;;;;;698330;28;1898;-65
2024/03/03 01:02:53;;;;;;;6.93;4.55;;;;;;;;;;699997;28;886;-64
2024/03/03 01:03:14;;;;;;;7.87;4.80;;;;;;;;;;697009;28;1334;-64
2024/03/03 01:03:34;;;;;;;9.33;5.03;;;;;;;;;;697441;28;1979;-65
2024/03/03 01:03:54;;;;;;;7.40;4.57;;;;;;;;;;699496;28;990;-65
2024/03/03 01:04:15;;;;;;;7.63;4.47;;;;;;;;;;700042;28;1510;-64
2024/03/03 01:04:35;;;;;;;7.88;5.00;;;;;;;;;;698035;28;2254;-64
2024/03/03 01:04:55;;;;;;;7.93;4.90;;;;;;;;;;696458;28;4319;-64
2024/03/03 01:05:16;;;;;;;7.10;4.70;;;;;;;;;;696131;28;1642;-64
2024/03/03 01:05:36;;;;;;;8.02;4.55;;;;;;;;;;696424;28;1874;-64
2024/03/03 01:05:56;;;;;;;7.97;4.50;;;;;;;;;;697531;28;1177;-64
2024/03/03 01:06:17;;;;;;;7.20;4.47;;;;;;;;;;696792;28;1016;-65
2024/03/03 01:06:37;;;;;;;7.22;4.50;;;;;;;;;;695392;28;1903;-64
2024/03/03 01:06:57;;;;;;;7.10;4.43;;;;;;;;;;700031;28;853;-64
2024/03/03 01:07:17;;;;;;;7.63;4.20;;;;;;;;;;696804;28;876;-65
2024/03/03 01:07:38;;;;;;;7.95;4.78;;;;;;;;;;695905;28;4388;-64
2024/03/03 01:07:59;;;;;;;7.00;4.60;;;;;;;;;;700544;28;1563;-63
2024/03/03 01:08:19;;;;;;;6.40;4.45;;;;;;;;;;699392;28;948;-65
2024/03/03 01:08:39;;;;;;;7.53;4.67;;;;;;;;;;695187;28;1361;-65
2024/03/03 01:08:59;;;;;;;7.93;4.80;;;;;;;;;;698286;28;817;-64
2024/03/03 01:09:20;;;;;;;7.32;4.72;;;;;;;;;;700514;28;1065;-65
2024/03/03 01:09:40;;;;;;;6.63;4.57;;;;;;;;;;699426;28;1276;-65
2024/03/03 01:10:00;;;;;;;6.70;4.40;;;;;;;;;;703033;28;908;-65
2024/03/03 01:10:21;;;;;;;8.30;4.78;;;;;;;;;;702754;28;924;-64
2024/03/03 01:10:41;;;;;;;9.10;4.47;;;;;;;;;;700894;28;4738;-65
2024/03/03 01:11:01;;;;;;;7.68;4.55;;;;;;;;;;701997;28;1499;-64
2024/03/03 01:11:22;;;;;;;7.40;4.80;;;;;;;;;;700850;28;1316;-65
2024/03/03 01:11:42;;;;;;;6.68;4.60;;;;;;;;;;697764;28;1702;-65
2024/03/03 01:12:03;;;;;;;7.20;4.50;;;;;;;;;;699415;28;940;-64
2024/03/03 01:12:24;;;;;;;7.30;4.60;;;;;;;;;;700489;28;781;-64
2024/03/03 01:12:45;;;;;;;7.60;4.38;;;;;;;;;;698888;28;1874;-65
2024/03/03 01:13:05;;;;;;;7.60;4.78;;;;;;;;;;702540;28;805;-65
2024/03/03 01:13:25;;;;;;;7.47;4.80;;;;;;;;;;702697;28;888;-64
2024/03/03 01:13:46;;;;;;;7.87;4.33;;;;;;;;;;698103;28;4520;-64
2024/03/03 01:14:09;;;;;;;7.20;4.23;;;;;;;;;;699892;28;819;-64
2024/03/03 01:14:30;;;;;;;6.85;4.20;;;;;;;;;;699853;28;955;-66
2024/03/03 01:14:50;;;;;;;7.30;4.22;;;;;;;;;;695698;28;2100;-65
2024/03/03 01:15:11;;;;;;;6.80;4.30;;;;;;;;;;698154;28;3740;-65
2024/03/03 01:15:31;;;;;;;7.03;4.38;;;;;;;;;;700274;28;888;-65
2024/03/03 01:15:51;;;;;;;6.60;4.60;;;;;;;;;;699187;28;1763;-64
2024/03/03 01:16:12;;;;;;;6.65;4.43;;;;;;;;;;698835;28;996;-64
2024/03/03 01:16:32;;;;;;;7.00;4.40;;;;;;;;;;699026;28;923;-65
2024/03/03 01:16:52;;;;;;;7.10;4.30;;;;;;;;;;699566;28;4656;-64
2024/03/03 01:17:13;;;;;;;7.15;4.28;;;;;;;;;;699223;28;1175;-64
2024/03/03 01:17:33;;;;;;;6.93;4.40;;;;;;;;;;700131;28;1050;-64
2024/03/03 01:17:53;;;;;;;7.67;4.30;;;;;;;;;;700783;28;1969;-64
2024/03/03 01:18:14;;;;;;;8.85;4.53;;;;;;;;;;700052;28;871;-64
2024/03/03 01:18:34;;;;;;;7.77;4.47;;;;;;;;;;699213;28;1186;-64
2024/03/03 01:18:54;;;;;;;7.07;4.57;;;;;;;;;;698436;28;890;-64
2024/03/03 01:19:15;;;;;;;7.60;4.40;;;;;;;;;;701366;28;903;-64
2024/03/03 01:19:36;;;;;;;7.70;4.40;;;;;;;;;;696232;28;1545;-64
2024/03/03 01:19:56;;;;;;;7.03;4.22;;;;;;;;;;696637;28;4337;-64
2024/03/03 01:20:16;;;;;;;6.57;4.00;;;;;;;;;;694275;28;1372;-65
2024/03/03 01:20:37;;;;;;;7.20;4.33;;;;;;;;;;692076;28;1771;-65
2024/03/03 01:20:57;;;;;;;7.40;4.47;;;;;;;;;;695478;28;1026;-64
2024/03/03 01:21:19;;;;;;;6.40;4.30;;;;;;;;;;690424;28;1916;-64
2024/03/03 01:21:42;;;;;;;6.40;4.07;;;;;;;;;;688709;28;2124;-64
2024/03/03 01:22:02;;;;;;;7.38;4.10;;;;;;;;;;693223;28;810;-64
2024/03/03 01:22:22;;;;;;;6.80;4.30;;;;;;;;;;695383;28;789;-64
2024/03/03 01:22:43;;;;;;;7.15;4.40;;;;;;;;;;694589;28;4453;-65
2024/03/03 01:23:03;;;;;;;6.90;4.30;;;;;;;;;;698418;28;982;-64
2024/03/03 01:23:23;;;;;;;7.13;4.37;;;;;;;;;;699817;28;1147;-64
2024/03/03 01:23:44;;;;;;;6.93;4.45;;;;;;;;;;699688;28;1673;-65
2024/03/03 01:24:04;;;;;;;6.33;4.20;;;;;;;;;;700831;28;1300;-64
2024/03/03 01:24:25;;;;;;;7.93;4.38;;;;;;;;;;700288;28;991;-64
2024/03/03 01:24:45;;;;;;;6.87;4.47;;;;;;;;;;699376;28;2650;-64
2024/03/03 01:25:06;;;;;;;6.50;4.30;;;;;;;;;;701130;28;931;-64
2024/03/03 01:25:28;;;;;;;6.50;4.20;;;;;;;;;;699897;28;891;-65
2024/03/03 01:25:49;;;;;;;7.40;4.40;;;;;;;;;;698002;28;4879;-65
2024/03/03 01:26:10;;;;;;;7.70;4.35;;;;;;;;;;697147;28;1549;-64
2024/03/03 01:26:30;;;;;;;7.50;4.30;;;;;;;;;;695077;28;1258;-64
2024/03/03 01:26:51;;;;;;;7.50;4.28;;;;;;;;;;691104;28;1818;-65
2024/03/03 01:27:11;;;;;;;7.93;4.30;;;;;;;;;;693262;28;1194;-64
2024/03/03 01:27:32;;;;;;;7.70;4.30;;;;;;;;;;694583;28;821;-64
2024/03/03 01:27:52;;;;;;;8.32;4.22;;;;;;;;;;694071;28;1943;-65
2024/03/03 01:28:13;;;;;;;6.97;4.30;;;;;;;;;;698598;28;959;-65
2024/03/03 01:28:33;;;;;;;6.95;4.80;;;;;;;;;;698403;28;946;-64
2024/03/03 01:28:53;;;;;;;7.27;4.50;;;;;;;;;;698993;28;4499;-65
2024/03/03 01:29:15;;;;;;;8.27;4.43;;;;;;;;;;699807;28;1442;-63
2024/03/03 01:29:35;;;;;;;7.55;4.65;;;;;;;;;;695898;28;1588;-65
2024/03/03 01:29:55;;;;;;;7.87;4.47;;;;;;;;;;697086;28;1286;-65
2024/03/03 01:30:16;;;;;;;7.27;4.33;;;;;;;;;;696824;28;968;-65
2024/03/03 01:30:36;;;;;;;6.63;4.17;;;;;;;;;;695233;28;1868;-64
2024/03/03 01:30:56;;;;;;;7.60;4.43;;;;;;;;;;697358;28;790;-64
2024/03/03 01:31:17;;;;;;;6.95;4.40;;;;;;;;;;696951;28;1345;-65
2024/03/03 01:31:37;;;;;;;6.60;4.20;;;;;;;;;;695375;28;4408;-65
2024/03/03 01:31:57;;;;;;;6.63;4.23;;;;;;;;;;696805;28;1198;-66
2024/03/03 01:32:17;;;;;;;6.77;4.20;;;;;;;;;;697465;28;841;-64
2024/03/03 01:32:38;;;;;;;6.97;4.30;;;;;;;;;;695488;28;1754;-63
2024/03/03 01:32:58;;;;;;;7.13;4.50;;;;;;;;;;694775;28;1297;-65
2024/03/03 01:33:19;;;;;;;6.88;4.40;;;;;;;;;;698307;28;1103;-64
2024/03/03 01:33:39;;;;;;;7.33;4.63;;;;;;;;;;694208;28;1540;-66
2024/03/03 01:33:59;;;;;;;6.68;4.30;;;;;;;;;;697503;28;841;-65
2024/03/03 01:34:19;;;;;;;6.67;4.27;;;;;;;;;;694267;28;1287;-64
2024/03/03 01:34:41;;;;;;;6.30;4.17;;;;;;;;;;691968;28;4556;-64
2024/03/03 01:35:01;;;;;;;7.20;4.45;;;;;;;;;;698050;28;1349;-65
2024/03/03 01:35:21;;;;;;;8.02;4.68;;;;;;;;;;695354;28;920;-66
2024/03/03 01:35:41;;;;;;;8.50;4.63;;;;;;;;;;696386;28;1609;-65
2024/03/03 01:36:02;;;;;;;6.57;4.43;;;;;;;;;;695439;28;832;-65
2024/03/03 01:36:22;;;;;;;6.43;4.13;;;;;;;;;;694713;28;971;-65
2024/03/03 01:36:42;;;;;;;6.60;4.33;;;;;;;;;;691061;28;1561;-66
2024/03/03 01:37:03;;;;;;;8.07;4.63;;;;;;;;;;695666;28;971;-65
2024/03/03 01:37:24;;;;;;;7.35;4.30;;;;;;;;;;698279;28;919;-66
2024/03/03 01:37:44;;;;;;;7.28;4.30;;;;;;;;;;696073;28;4337;-64
2024/03/03 01:38:04;;;;;;;6.73;4.10;;;;;;;;;;701181;28;1065;-64
2024/03/03 01:38:24;;;;;;;8.07;4.40;;;;;;;;;;701129;28;1006;-64
2024/03/03 01:38:45;;;;;;;7.90;4.75;;;;;;;;;;700970;28;1788;-64
2024/03/03 01:39:05;;;;;;;7.23;4.23;;;;;;;;;;700841;28;1364;-65
2024/03/03 01:39:25;;;;;;;7.60;4.20;;;;;;;;;;701151;28;1157;-64
2024/03/03 01:39:46;;;;;;;7.30;4.20;;;;;;;;;;696996;28;1699;-64
2024/03/03 01:40:07;;;;;;;6.33;4.30;;;;;;;;;;698157;28;971;-64
2024/03/03 01:40:27;;;;;;;7.50;4.40;;;;;;;;;;698182;28;1046;-63
2024/03/03 01:40:51;;;;;;;7.03;4.25;;;;;;;;;;695434;28;4563;-64
2024/03/03 01:41:11;;;;;;;6.50;4.10;;;;;;;;;;695761;28;860;-62
2024/03/03 01:41:31;;;;;;;8.10;4.27;;;;;;;;;;693435;28;1070;-65
2024/03/03 01:41:52;;;;;;;7.20;4.50;;;;;;;;;;694854;28;1498;-64
2024/03/03 01:42:13;;;;;;;6.60;4.30;;;;;;;;;;698926;28;975;-64
2024/03/03 01:42:33;;;;;;;7.20;4.40;;;;;;;;;;699590;28;1086;-65
2024/03/03 01:42:54;;;;;;;7.43;4.40;;;;;;;;;;699635;28;1930;-65
2024/03/03 01:43:14;;;;;;;7.60;4.55;;;;;;;;;;697831;28;987;-64
2024/03/03 01:43:35;;;;;;;8.63;4.87;;;;;;;;;;698181;28;1688;-64
2024/03/03 01:43:55;;;;;;;7.78;4.60;;;;;;;;;;693605;28;4416;-64
2024/03/03 01:44:15;;;;;;;6.33;4.20;;;;;;;;;;695003;28;1139;-65
2024/03/03 01:44:36;;;;;;;6.95;4.38;;;;;;;;;;694136;28;1888;-64
2024/03/03 01:44:56;;;;;;;7.07;4.50;;;;;;;;;;695366;28;976;-64
2024/03/03 01:45:21;;;;;;;6.50;4.50;;;;;;;;;;693935;28;888;-64
2024/03/03 01:45:42;;;;;;;7.00;4.00;;;;;;;;;;697007;28;991;-65
2024/03/03 01:46:02;;;;;;;6.90;4.17;;;;;;;;;;696359;28;920;-64
2024/03/03 01:46:22;;;;;;;7.00;4.37;;;;;;;;;;698339;28;955;-64
2024/03/03 01:46:43;;;;;;;7.03;4.57;;;;;;;;;;696526;28;4874;-64
2024/03/03 01:47:03;;;;;;;6.93;4.17;;;;;;;;;;699245;28;983;-65
2024/03/03 01:47:24;;;;;;;6.50;4.00;;;;;;;;;;701004;28;877;-65
2024/03/03 01:47:44;;;;;;;6.60;4.20;;;;;;;;;;701581;28;1702;-65
2024/03/03 01:48:05;;;;;;;7.00;4.30;;;;;;;;;;702456;28;927;-64
2024/03/03 01:48:25;;;;;;;7.03;4.90;;;;;;;;;;702407;28;1073;-64
2024/03/03 01:48:46;;;;;;;6.88;4.60;;;;;;;;;;697695;28;1861;-65
2024/03/03 01:49:07;;;;;;;7.45;4.15;;;;;;;;;;700537;28;917;-63
2024/03/03 01:49:28;;;;;;;8.40;4.10;;;;;;;;;;699645;28;865;-67
2024/03/03 01:49:50;;;;;;;7.25;4.00;;;;;;;;;;697995;28;4645;-64
2024/03/03 01:50:11;;;;;;;6.80;4.20;;;;;;;;;;700854;28;1631;-66
2024/03/03 01:50:31;;;;;;;7.10;4.50;;;;;;;;;;701551;28;904;-64
2024/03/03 01:50:52;;;;;;;6.63;4.15;;;;;;;;;;701189;28;1887;-65
2024/03/03 01:51:12;;;;;;;7.07;4.10;;;;;;;;;;699315;28;924;-64
2024/03/03 01:51:33;;;;;;;6.83;4.37;;;;;;;;;;698254;28;960;-63
2024/03/03 01:51:53;;;;;;;6.55;4.15;;;;;;;;;;698567;28;1994;-62
2024/03/03 01:52:14;;;;;;;7.37;4.17;;;;;;;;;;700088;28;932;-63
2024/03/03 01:52:35;;;;;;;7.40;4.30;;;;;;;;;;699661;28;825;-63
2024/03/03 01:52:56;;;;;;;7.13;4.20;;;;;;;;;;695987;28;4556;-64
2024/03/03 01:53:17;;;;;;;6.80;4.40;;;;;;;;;;695185;28;1252;-64
2024/03/03 01:53:39;;;;;;;6.93;4.35;;;;;;;;;;692397;28;2740;-64
2024/03/03 01:53:59;;;;;;;6.63;4.30;;;;;;;;;;694909;28;936;-65
2024/03/03 01:54:20;;;;;;;7.05;4.18;;;;;;;;;;694824;28;1182;-63
2024/03/03 01:54:40;;;;;;;6.43;3.93;;;;;;;;;;691773;28;2206;-64
2024/03/03 01:55:01;;;;;;;6.43;4.20;;;;;;;;;;694690;28;999;-64
2024/03/03 01:55:22;;;;;;;6.80;4.23;;;;;;;;;;692712;28;1451;-64
2024/03/03 01:55:43;;;;;;;7.07;4.32;;;;;;;;;;689134;28;4901;-64
2024/03/03 01:56:06;;;;;;;6.90;4.45;;;;;;;;;;692410;28;1352;-64
2024/03/03 01:56:28;;;;;;;6.78;4.38;;;;;;;;;;692666;28;1659;-64
2024/03/03 01:56:49;;;;;;;6.80;4.20;;;;;;;;;;694490;28;1922;-64
2024/03/03 01:57:11;;;;;;;7.18;4.18;;;;;;;;;;694494;28;1223;-65
2024/03/03 01:57:32;;;;;;;7.95;4.38;;;;;;;;;;695061;28;978;-64
2024/03/03 01:57:56;;;;;;;7.10;4.20;;;;;;;;;;695160;28;1979;-64
2024/03/03 01:58:17;;;;;;;6.70;4.22;;;;;;;;;;694718;28;1529;-63
2024/03/03 01:58:39;;;;;;;7.00;4.07;;;;;;;;;;695435;28;4544;-64
2024/03/03 01:59:00;;;;;;;6.22;4.00;;;;;;;;;;696417;28;1268;-64
2024/03/03 01:59:21;;;;;;;6.25;4.28;;;;;;;;;;695242;28;924;-63
2024/03/03 01:59:41;;;;;;;7.20;4.40;;;;;;;;;;695057;28;1656;-63
2024/03/03 02:00:05;;;;;;;7.80;4.40;;;;;;;;;;695384;28;1506;-63
2024/03/03 02:00:33;;;;;;;6.95;4.30;;;;;;;;;;696369;28;1058;-65
2024/03/03 02:00:53;;;;;;;7.07;4.30;;;;;;;;;;692584;28;1478;-63
2024/03/03 02:01:14;;;;;;;7.77;4.33;;;;;;;;;;695365;28;836;-64
2024/03/03 02:01:35;;;;;;;8.25;4.85;;;;;;;;;;695569;28;920;-65
2024/03/03 02:01:56;;;;;;;7.57;4.40;;;;;;;;;;693627;28;4652;-64
2024/03/03 02:02:17;;;;;;;7.15;4.43;;;;;;;;;;698040;28;926;-65
2024/03/03 02:02:38;;;;;;;7.50;4.57;;;;;;;;;;692728;28;1263;-64
2024/03/03 02:03:01;;;;;;;7.07;4.50;;;;;;;;;;696922;28;910;-64
2024/03/03 02:03:21;;;;;;;6.78;4.10;;;;;;;;;;697313;28;1343;-64
2024/03/03 02:03:42;;;;;;;7.33;4.20;;;;;;;;;;695467;28;1919;-64
2024/03/03 02:04:02;;;;;;;7.15;4.28;;;;;;;;;;697834;28;1214;-64
2024/03/03 02:04:23;;;;;;;8.20;4.73;;;;;;;;;;695399;28;1527;-64
2024/03/03 02:04:44;;;;;;;8.25;4.72;;;;;;;;;;696259;28;4270;-63
2024/03/03 02:05:05;;;;;;;7.57;4.43;;;;;;;;;;694803;28;873;-63
2024/03/03 02:05:27;;;;;;;7.32;4.35;;;;;;;;;;694610;28;1066;-65
2024/03/03 02:05:47;;;;;;;7.80;4.60;;;;;;;;;;693288;28;2344;-64
2024/03/03 02:06:07;;;;;;;7.10;4.60;;;;;;;;;;693438;28;1182;-63
2024/03/03 02:06:29;;;;;;;7.40;4.30;;;;;;;;;;695423;28;1141;-65
2024/03/03 02:06:51;;;;;;;7.65;4.15;;;;;;;;;;697017;28;1004;-65
2024/03/03 02:07:11;;;;;;;7.45;4.15;;;;;;;;;;693375;28;1064;-64
2024/03/03 02:07:32;;;;;;;7.47;4.20;;;;;;;;;;695593;28;765;-64
2024/03/03 02:07:53;;;;;;;7.50;4.33;;;;;;;;;;694590;28;4497;-65
2024/03/03 02:08:14;;;;;;;8.57;4.63;;;;;;;;;;695530;28;1345;-64